sensor_id;sensor_type;location;lat;lon;timestamp;P1;durP1;ratioP1;P2;durP2;ratioP2
27977;SDS011;15314;49.248;6.968;2022-11-15T00:00:41;14.35;;;13.15;;
27977;SDS011;15314;49.248;6.968;2022-11-15T00:01:41;14.80;;;13.48;;
27977;SDS011;15314;49.248;6.968;2022-11-15T00:02:42;14.15;;;13.07;;
27977;SDS011;15314;49.248;6.968;2022-11-15T00:03:43;14.70;;;13.20;;
27977;SDS011;15314;49.248;6.968;2022-11-15T00:04:43;13.57;;;12.40;;
27977;SDS011;15314;49.248;6.968;2022-11-15T00:05:44;14.57;;;12.57;;
27977;SDS011;15314;49.248;6.968;2022-11-15T00:06:45;13.40;;;12.48;;
27977;SDS011;15314;49.248;6.968;2022-11-15T00:07:46;14.18;;;12.98;;
27977;SDS011;15314;49.248;6.968;2022-11-15T00:08:46;12.50;;;11.52;;
27977;SDS011;15314;49.248;6.968;2022-11-15T00:09:47;13.88;;;12.75;;
27977;SDS011;15314;49.248;6.968;2022-11-15T00:10:57;13.13;;;12.02;;
27977;SDS011;15314;49.248;6.968;2022-11-15T00:12:00;13.60;;;12.55;;
27977;SDS011;15314;49.248;6.968;2022-11-15T00:13:03;13.85;;;12.60;;
27977;SDS011;15314;49.248;6.968;2022-11-15T00:14:08;13.77;;;12.45;;
27977;SDS011;15314;49.248;6.968;2022-11-15T00:15:08;12.90;;;11.98;;
27977;SDS011;15314;49.248;6.968;2022-11-15T00:16:09;14.15;;;12.98;;
27977;SDS011;15314;49.248;6.968;2022-11-15T00:17:10;12.95;;;12.00;;
27977;SDS011;15314;49.248;6.968;2022-11-15T00:18:14;14.10;;;12.85;;
27977;SDS011;15314;49.248;6.968;2022-11-15T00:19:15;13.50;;;12.30;;
27977;SDS011;15314;49.248;6.968;2022-11-15T00:20:16;13.25;;;12.05;;
27977;SDS011;15314;49.248;6.968;2022-11-15T00:21:17;13.25;;;12.30;;
27977;SDS011;15314;49.248;6.968;2022-11-15T00:22:18;14.18;;;12.85;;
27977;SDS011;15314;49.248;6.968;2022-11-15T00:23:19;13.80;;;12.75;;
27977;SDS011;15314;49.248;6.968;2022-11-15T00:24:19;13.23;;;12.13;;
27977;SDS011;15314;49.248;6.968;2022-11-15T00:25:20;13.13;;;12.13;;
27977;SDS011;15314;49.248;6.968;2022-11-15T00:26:21;13.15;;;11.95;;
27977;SDS011;15314;49.248;6.968;2022-11-15T00:27:21;13.27;;;12.18;;
27977;SDS011;15314;49.248;6.968;2022-11-15T00:28:22;13.75;;;12.65;;
27977;SDS011;15314;49.248;6.968;2022-11-15T00:29:22;14.13;;;12.98;;
27977;SDS011;15314;49.248;6.968;2022-11-15T00:30:23;13.20;;;11.93;;
27977;SDS011;15314;49.248;6.968;2022-11-15T00:31:24;13.63;;;12.52;;
27977;SDS011;15314;49.248;6.968;2022-11-15T00:32:25;13.27;;;12.05;;
27977;SDS011;15314;49.248;6.968;2022-11-15T00:33:25;14.10;;;12.90;;
27977;SDS011;15314;49.248;6.968;2022-11-15T00:34:26;13.00;;;11.90;;
27977;SDS011;15314;49.248;6.968;2022-11-15T00:35:26;13.63;;;12.52;;
27977;SDS011;15314;49.248;6.968;2022-11-15T00:36:27;13.73;;;12.50;;
27977;SDS011;15314;49.248;6.968;2022-11-15T00:37:28;13.77;;;12.68;;
27977;SDS011;15314;49.248;6.968;2022-11-15T00:38:32;13.40;;;12.32;;
27977;SDS011;15314;49.248;6.968;2022-11-15T00:39:36;13.60;;;12.43;;
27977;SDS011;15314;49.248;6.968;2022-11-15T00:40:36;12.75;;;11.68;;
27977;SDS011;15314;49.248;6.968;2022-11-15T00:41:37;14.18;;;12.80;;
27977;SDS011;15314;49.248;6.968;2022-11-15T00:42:38;12.65;;;11.75;;
27977;SDS011;15314;49.248;6.968;2022-11-15T00:43:38;12.65;;;11.75;;
27977;SDS011;15314;49.248;6.968;2022-11-15T00:44:39;13.35;;;12.07;;
27977;SDS011;15314;49.248;6.968;2022-11-15T00:45:40;13.90;;;12.48;;
27977;SDS011;15314;49.248;6.968;2022-11-15T00:46:41;12.35;;;11.32;;
27977;SDS011;15314;49.248;6.968;2022-11-15T00:47:43;12.07;;;11.18;;
27977;SDS011;15314;49.248;6.968;2022-11-15T00:48:45;12.80;;;11.70;;
27977;SDS011;15314;49.248;6.968;2022-11-15T00:49:46;12.63;;;11.57;;
27977;SDS011;15314;49.248;6.968;2022-11-15T00:50:46;12.60;;;11.52;;
27977;SDS011;15314;49.248;6.968;2022-11-15T00:51:48;13.25;;;12.13;;
27977;SDS011;15314;49.248;6.968;2022-11-15T00:52:48;12.95;;;11.95;;
27977;SDS011;15314;49.248;6.968;2022-11-15T00:53:49;13.02;;;11.93;;
27977;SDS011;15314;49.248;6.968;2022-11-15T00:54:49;12.57;;;11.63;;
27977;SDS011;15314;49.248;6.968;2022-11-15T00:55:50;12.63;;;11.63;;
27977;SDS011;15314;49.248;6.968;2022-11-15T00:56:51;13.77;;;12.70;;
27977;SDS011;15314;49.248;6.968;2022-11-15T00:57:51;12.77;;;11.88;;
27977;SDS011;15314;49.248;6.968;2022-11-15T00:58:52;13.10;;;11.75;;
27977;SDS011;15314;49.248;6.968;2022-11-15T00:59:53;12.65;;;11.65;;
27977;SDS011;15314;49.248;6.968;2022-11-15T01:00:54;13.43;;;12.30;;
27977;SDS011;15314;49.248;6.968;2022-11-15T01:01:54;13.15;;;12.05;;
27977;SDS011;15314;49.248;6.968;2022-11-15T01:02:55;14.55;;;12.55;;
27977;SDS011;15314;49.248;6.968;2022-11-15T01:03:56;12.57;;;11.57;;
27977;SDS011;15314;49.248;6.968;2022-11-15T01:04:57;13.02;;;12.00;;
27977;SDS011;15314;49.248;6.968;2022-11-15T01:05:58;12.90;;;11.90;;
27977;SDS011;15314;49.248;6.968;2022-11-15T01:07:00;12.43;;;11.57;;
27977;SDS011;15314;49.248;6.968;2022-11-15T01:08:00;12.77;;;11.73;;
27977;SDS011;15314;49.248;6.968;2022-11-15T01:09:01;13.45;;;12.38;;
27977;SDS011;15314;49.248;6.968;2022-11-15T01:10:02;13.52;;;12.30;;
27977;SDS011;15314;49.248;6.968;2022-11-15T01:11:04;12.65;;;11.65;;
27977;SDS011;15314;49.248;6.968;2022-11-15T01:12:10;13.63;;;12.40;;
27977;SDS011;15314;49.248;6.968;2022-11-15T01:13:10;13.52;;;12.32;;
27977;SDS011;15314;49.248;6.968;2022-11-15T01:14:11;12.60;;;11.75;;
27977;SDS011;15314;49.248;6.968;2022-11-15T01:15:12;12.93;;;11.93;;
27977;SDS011;15314;49.248;6.968;2022-11-15T01:16:14;13.20;;;12.05;;
27977;SDS011;15314;49.248;6.968;2022-11-15T01:17:17;13.65;;;12.68;;
27977;SDS011;15314;49.248;6.968;2022-11-15T01:18:17;12.98;;;12.02;;
27977;SDS011;15314;49.248;6.968;2022-11-15T01:19:18;12.55;;;11.55;;
27977;SDS011;15314;49.248;6.968;2022-11-15T01:20:18;12.70;;;11.80;;
27977;SDS011;15314;49.248;6.968;2022-11-15T01:21:19;14.07;;;12.82;;
27977;SDS011;15314;49.248;6.968;2022-11-15T07:58:19;14.90;;;13.68;;
27977;SDS011;15314;49.248;6.968;2022-11-15T07:59:20;14.52;;;13.30;;
27977;SDS011;15314;49.248;6.968;2022-11-15T08:00:21;15.57;;;14.10;;
27977;SDS011;15314;49.248;6.968;2022-11-15T08:01:21;14.32;;;13.32;;
27977;SDS011;15314;49.248;6.968;2022-11-15T08:02:22;15.48;;;14.07;;
27977;SDS011;15314;49.248;6.968;2022-11-15T08:03:23;14.88;;;13.75;;
27977;SDS011;15314;49.248;6.968;2022-11-15T08:04:23;13.73;;;12.73;;
27977;SDS011;15314;49.248;6.968;2022-11-15T08:05:24;16.17;;;14.73;;
27977;SDS011;15314;49.248;6.968;2022-11-15T08:06:25;13.68;;;12.55;;
27977;SDS011;15314;49.248;6.968;2022-11-15T08:07:28;13.75;;;12.60;;
27977;SDS011;15314;49.248;6.968;2022-11-15T08:08:30;14.45;;;13.25;;
27977;SDS011;15314;49.248;6.968;2022-11-15T08:09:30;14.30;;;13.20;;
27977;SDS011;15314;49.248;6.968;2022-11-15T08:10:31;15.23;;;13.77;;
27977;SDS011;15314;49.248;6.968;2022-11-15T08:11:32;17.00;;;14.02;;
27977;SDS011;15314;49.248;6.968;2022-11-15T08:12:33;15.35;;;14.05;;
27977;SDS011;15314;49.248;6.968;2022-11-15T08:13:34;15.50;;;14.13;;
27977;SDS011;15314;49.248;6.968;2022-11-15T08:14:35;17.25;;;14.00;;
27977;SDS011;15314;49.248;6.968;2022-11-15T08:15:36;15.90;;;14.50;;
27977;SDS011;15314;49.248;6.968;2022-11-15T08:16:37;14.75;;;13.65;;
27977;SDS011;15314;49.248;6.968;2022-11-15T08:17:38;15.32;;;13.93;;
27977;SDS011;15314;49.248;6.968;2022-11-15T08:18:38;14.77;;;13.68;;
27977;SDS011;15314;49.248;6.968;2022-11-15T08:19:39;15.15;;;13.85;;
27977;SDS011;15314;49.248;6.968;2022-11-15T08:20:39;14.30;;;13.10;;
27977;SDS011;15314;49.248;6.968;2022-11-15T08:21:41;13.25;;;12.18;;
27977;SDS011;15314;49.248;6.968;2022-11-15T08:22:41;14.15;;;13.13;;
27977;SDS011;15314;49.248;6.968;2022-11-15T08:23:42;14.27;;;13.20;;
27977;SDS011;15314;49.248;6.968;2022-11-15T08:24:43;15.55;;;14.15;;
27977;SDS011;15314;49.248;6.968;2022-11-15T08:25:44;16.58;;;14.95;;
27977;SDS011;15314;49.248;6.968;2022-11-15T08:26:44;17.15;;;15.50;;
27977;SDS011;15314;49.248;6.968;2022-11-15T08:27:45;15.65;;;14.48;;
27977;SDS011;15314;49.248;6.968;2022-11-15T08:28:46;18.23;;;16.67;;
27977;SDS011;15314;49.248;6.968;2022-11-15T08:29:48;16.73;;;15.15;;
27977;SDS011;15314;49.248;6.968;2022-11-15T08:30:50;17.15;;;15.60;;
27977;SDS011;15314;49.248;6.968;2022-11-15T08:31:50;15.80;;;14.60;;
27977;SDS011;15314;49.248;6.968;2022-11-15T08:32:51;16.15;;;14.95;;
27977;SDS011;15314;49.248;6.968;2022-11-15T08:33:53;15.18;;;14.07;;
27977;SDS011;15314;49.248;6.968;2022-11-15T08:34:54;16.00;;;14.77;;
27977;SDS011;15314;49.248;6.968;2022-11-15T08:35:57;16.30;;;15.15;;
27977;SDS011;15314;49.248;6.968;2022-11-15T08:36:59;17.08;;;15.68;;
27977;SDS011;15314;49.248;6.968;2022-11-15T08:38:00;15.95;;;14.38;;
27977;SDS011;15314;49.248;6.968;2022-11-15T08:39:00;20.17;;;18.13;;
27977;SDS011;15314;49.248;6.968;2022-11-15T08:40:01;20.20;;;18.33;;
27977;SDS011;15314;49.248;6.968;2022-11-15T08:41:02;14.95;;;13.75;;
27977;SDS011;15314;49.248;6.968;2022-11-15T08:42:04;15.20;;;14.10;;
27977;SDS011;15314;49.248;6.968;2022-11-15T08:43:05;15.95;;;14.55;;
27977;SDS011;15314;49.248;6.968;2022-11-15T08:44:06;15.77;;;14.23;;
27977;SDS011;15314;49.248;6.968;2022-11-15T08:45:07;15.48;;;14.18;;
27977;SDS011;15314;49.248;6.968;2022-11-15T08:46:10;15.70;;;14.20;;
27977;SDS011;15314;49.248;6.968;2022-11-15T08:47:12;15.60;;;14.40;;
27977;SDS011;15314;49.248;6.968;2022-11-15T08:48:16;15.20;;;14.10;;
27977;SDS011;15314;49.248;6.968;2022-11-15T08:49:16;16.85;;;15.40;;
27977;SDS011;15314;49.248;6.968;2022-11-15T08:50:17;16.17;;;14.85;;
27977;SDS011;15314;49.248;6.968;2022-11-15T08:51:18;15.80;;;14.50;;
27977;SDS011;15314;49.248;6.968;2022-11-15T08:52:18;15.95;;;14.60;;
27977;SDS011;15314;49.248;6.968;2022-11-15T08:53:19;15.02;;;13.93;;
27977;SDS011;15314;49.248;6.968;2022-11-15T08:54:19;19.40;;;16.20;;
27977;SDS011;15314;49.248;6.968;2022-11-15T08:55:20;18.90;;;16.95;;
27977;SDS011;15314;49.248;6.968;2022-11-15T08:56:21;19.48;;;17.23;;
27977;SDS011;15314;49.248;6.968;2022-11-15T08:57:21;31.35;;;18.73;;
27977;SDS011;15314;49.248;6.968;2022-11-15T08:58:22;14.75;;;13.23;;
27977;SDS011;15314;49.248;6.968;2022-11-15T08:59:22;14.13;;;13.07;;
27977;SDS011;15314;49.248;6.968;2022-11-15T09:00:23;14.63;;;13.43;;
27977;SDS011;15314;49.248;6.968;2022-11-15T09:01:24;16.38;;;14.70;;
27977;SDS011;15314;49.248;6.968;2022-11-15T09:02:27;14.05;;;12.95;;
27977;SDS011;15314;49.248;6.968;2022-11-15T09:03:28;18.63;;;15.88;;
27977;SDS011;15314;49.248;6.968;2022-11-15T09:04:28;17.25;;;15.50;;
27977;SDS011;15314;49.248;6.968;2022-11-15T09:05:29;23.60;;;19.52;;
27977;SDS011;15314;49.248;6.968;2022-11-15T09:06:33;21.95;;;18.27;;
27977;SDS011;15314;49.248;6.968;2022-11-15T09:07:33;17.23;;;15.60;;
27977;SDS011;15314;49.248;6.968;2022-11-15T09:08:34;16.15;;;14.75;;
27977;SDS011;15314;49.248;6.968;2022-11-15T09:09:35;15.02;;;13.93;;
27977;SDS011;15314;49.248;6.968;2022-11-15T09:10:36;16.75;;;15.18;;
27977;SDS011;15314;49.248;6.968;2022-11-15T09:11:36;15.15;;;13.95;;
27977;SDS011;15314;49.248;6.968;2022-11-15T09:12:37;15.00;;;13.90;;
27977;SDS011;15314;49.248;6.968;2022-11-15T09:13:38;13.82;;;12.82;;
27977;SDS011;15314;49.248;6.968;2022-11-15T09:14:39;14.90;;;13.77;;
27977;SDS011;15314;49.248;6.968;2022-11-15T09:15:39;15.07;;;13.90;;
27977;SDS011;15314;49.248;6.968;2022-11-15T09:16:40;13.65;;;12.65;;
27977;SDS011;15314;49.248;6.968;2022-11-15T09:17:41;13.40;;;12.40;;
27977;SDS011;15314;49.248;6.968;2022-11-15T09:18:42;13.65;;;12.65;;
27977;SDS011;15314;49.248;6.968;2022-11-15T09:19:42;14.70;;;13.63;;
27977;SDS011;15314;49.248;6.968;2022-11-15T09:20:43;13.63;;;12.52;;
27977;SDS011;15314;49.248;6.968;2022-11-15T09:21:44;13.98;;;13.05;;
27977;SDS011;15314;49.248;6.968;2022-11-15T09:22:44;13.48;;;12.40;;
27977;SDS011;15314;49.248;6.968;2022-11-15T09:23:45;14.20;;;13.20;;
27977;SDS011;15314;49.248;6.968;2022-11-15T09:24:46;14.95;;;13.65;;
27977;SDS011;15314;49.248;6.968;2022-11-15T09:25:46;13.50;;;12.50;;
27977;SDS011;15314;49.248;6.968;2022-11-15T09:26:49;14.95;;;13.82;;
27977;SDS011;15314;49.248;6.968;2022-11-15T09:27:51;14.80;;;13.60;;
27977;SDS011;15314;49.248;6.968;2022-11-15T09:28:51;14.05;;;13.15;;
27977;SDS011;15314;49.248;6.968;2022-11-15T09:29:52;14.52;;;13.52;;
27977;SDS011;15314;49.248;6.968;2022-11-15T09:30:56;14.40;;;13.40;;
27977;SDS011;15314;49.248;6.968;2022-11-15T09:31:58;15.10;;;13.90;;
27977;SDS011;15314;49.248;6.968;2022-11-15T09:32:59;14.48;;;13.57;;
27977;SDS011;15314;49.248;6.968;2022-11-15T09:34:07;14.45;;;13.52;;
27977;SDS011;15314;49.248;6.968;2022-11-15T09:35:08;13.48;;;12.43;;
27977;SDS011;15314;49.248;6.968;2022-11-15T09:36:08;13.25;;;12.45;;
27977;SDS011;15314;49.248;6.968;2022-11-15T09:37:09;13.25;;;12.35;;
27977;SDS011;15314;49.248;6.968;2022-11-15T09:38:10;13.23;;;12.52;;
27977;SDS011;15314;49.248;6.968;2022-11-15T09:39:11;14.68;;;13.65;;
27977;SDS011;15314;49.248;6.968;2022-11-15T09:40:12;13.80;;;12.93;;
27977;SDS011;15314;49.248;6.968;2022-11-15T09:41:29;19.15;;;17.45;;
27977;SDS011;15314;49.248;6.968;2022-11-15T09:48:43;14.15;;;13.05;;
27977;SDS011;15314;49.248;6.968;2022-11-15T09:49:55;13.57;;;12.63;;
27977;SDS011;15314;49.248;6.968;2022-11-15T09:50:59;13.32;;;12.52;;
27977;SDS011;15314;49.248;6.968;2022-11-15T09:52:00;13.27;;;12.40;;
27977;SDS011;15314;49.248;6.968;2022-11-15T09:53:01;13.25;;;12.45;;
27977;SDS011;15314;49.248;6.968;2022-11-15T09:54:10;12.98;;;12.07;;
27977;SDS011;15314;49.248;6.968;2022-11-15T09:55:36;13.40;;;12.60;;
27977;SDS011;15314;49.248;6.968;2022-11-15T09:56:47;12.57;;;11.65;;
27977;SDS011;15314;49.248;6.968;2022-11-15T09:57:50;12.43;;;11.63;;
27977;SDS011;15314;49.248;6.968;2022-11-15T10:00:07;13.38;;;12.57;;
27977;SDS011;15314;49.248;6.968;2022-11-15T10:01:29;12.50;;;11.68;;
27977;SDS011;15314;49.248;6.968;2022-11-15T10:02:52;17.08;;;15.57;;
27977;SDS011;15314;49.248;6.968;2022-11-15T10:04:06;12.80;;;11.90;;
27977;SDS011;15314;49.248;6.968;2022-11-15T10:05:08;12.63;;;11.63;;
27977;SDS011;15314;49.248;6.968;2022-11-15T10:06:25;11.30;;;10.65;;
27977;SDS011;15314;49.248;6.968;2022-11-15T10:09:04;12.18;;;11.32;;
27977;SDS011;15314;49.248;6.968;2022-11-15T10:10:43;11.05;;;10.40;;
27977;SDS011;15314;49.248;6.968;2022-11-15T10:11:46;11.88;;;11.00;;
27977;SDS011;15314;49.248;6.968;2022-11-15T10:12:48;11.02;;;10.32;;
27977;SDS011;15314;49.248;6.968;2022-11-15T10:13:51;11.70;;;10.80;;
27977;SDS011;15314;49.248;6.968;2022-11-15T10:15:03;11.35;;;10.73;;
27977;SDS011;15314;49.248;6.968;2022-11-15T10:16:24;11.30;;;10.50;;
27977;SDS011;15314;49.248;6.968;2022-11-15T10:17:40;11.70;;;10.90;;
27977;SDS011;15314;49.248;6.968;2022-11-15T10:18:50;11.48;;;10.60;;
27977;SDS011;15314;49.248;6.968;2022-11-15T10:21:16;10.52;;;9.85;;
27977;SDS011;15314;49.248;6.968;2022-11-15T10:22:25;11.50;;;10.80;;
27977;SDS011;15314;49.248;6.968;2022-11-15T10:23:28;11.32;;;10.57;;
27977;SDS011;15314;49.248;6.968;2022-11-15T10:24:34;11.55;;;10.85;;
27977;SDS011;15314;49.248;6.968;2022-11-15T10:25:37;12.07;;;11.07;;
27977;SDS011;15314;49.248;6.968;2022-11-15T10:26:38;11.50;;;10.90;;
27977;SDS011;15314;49.248;6.968;2022-11-15T10:27:59;12.18;;;11.30;;
27977;SDS011;15314;49.248;6.968;2022-11-15T10:29:01;11.52;;;10.80;;
27977;SDS011;15314;49.248;6.968;2022-11-15T10:30:03;11.32;;;10.52;;
27977;SDS011;15314;49.248;6.968;2022-11-15T10:31:23;11.90;;;11.02;;
27977;SDS011;15314;49.248;6.968;2022-11-15T10:32:26;11.82;;;10.80;;
27977;SDS011;15314;49.248;6.968;2022-11-15T10:33:34;12.13;;;11.35;;
27977;SDS011;15314;49.248;6.968;2022-11-15T10:34:37;11.25;;;10.60;;
27977;SDS011;15314;49.248;6.968;2022-11-15T10:35:37;11.07;;;10.48;;
27977;SDS011;15314;49.248;6.968;2022-11-15T10:36:38;11.70;;;10.95;;
27977;SDS011;15314;49.248;6.968;2022-11-15T10:37:43;12.15;;;11.45;;
27977;SDS011;15314;49.248;6.968;2022-11-15T10:40:14;11.98;;;11.07;;
27977;SDS011;15314;49.248;6.968;2022-11-15T10:41:18;12.35;;;11.65;;
27977;SDS011;15314;49.248;6.968;2022-11-15T10:42:29;11.52;;;10.73;;
27977;SDS011;15314;49.248;6.968;2022-11-15T10:43:30;10.88;;;10.23;;
27977;SDS011;15314;49.248;6.968;2022-11-15T10:44:30;13.07;;;12.02;;
27977;SDS011;15314;49.248;6.968;2022-11-15T10:45:32;11.80;;;11.05;;
27977;SDS011;15314;49.248;6.968;2022-11-15T10:46:34;12.00;;;11.35;;
27977;SDS011;15314;49.248;6.968;2022-11-15T10:47:36;11.93;;;11.23;;
27977;SDS011;15314;49.248;6.968;2022-11-15T10:48:37;11.73;;;10.73;;
27977;SDS011;15314;49.248;6.968;2022-11-15T10:49:38;12.68;;;11.55;;
27977;SDS011;15314;49.248;6.968;2022-11-15T10:50:54;11.68;;;10.88;;
27977;SDS011;15314;49.248;6.968;2022-11-15T10:51:56;11.70;;;11.00;;
27977;SDS011;15314;49.248;6.968;2022-11-15T10:52:59;11.40;;;10.73;;
27977;SDS011;15314;49.248;6.968;2022-11-15T10:54:03;11.50;;;11.00;;
27977;SDS011;15314;49.248;6.968;2022-11-15T10:56:16;11.68;;;11.07;;
27977;SDS011;15314;49.248;6.968;2022-11-15T10:57:23;11.10;;;10.55;;
27977;SDS011;15314;49.248;6.968;2022-11-15T10:58:37;11.45;;;10.68;;
27977;SDS011;15314;49.248;6.968;2022-11-15T10:59:45;12.32;;;11.30;;
27977;SDS011;15314;49.248;6.968;2022-11-15T11:00:48;12.00;;;11.30;;
27977;SDS011;15314;49.248;6.968;2022-11-15T11:01:49;11.88;;;11.13;;
27977;SDS011;15314;49.248;6.968;2022-11-15T11:05:02;11.20;;;10.60;;
27977;SDS011;15314;49.248;6.968;2022-11-15T11:07:22;11.68;;;10.93;;
27977;SDS011;15314;49.248;6.968;2022-11-15T11:08:24;11.38;;;10.77;;
27977;SDS011;15314;49.248;6.968;2022-11-15T11:09:31;10.65;;;10.05;;
27977;SDS011;15314;49.248;6.968;2022-11-15T11:10:38;11.07;;;10.52;;
27977;SDS011;15314;49.248;6.968;2022-11-15T11:11:45;11.70;;;10.88;;
27977;SDS011;15314;49.248;6.968;2022-11-15T11:12:48;12.15;;;11.35;;
27977;SDS011;15314;49.248;6.968;2022-11-15T11:13:48;10.60;;;10.10;;
27977;SDS011;15314;49.248;6.968;2022-11-15T11:14:49;10.88;;;10.38;;
27977;SDS011;15314;49.248;6.968;2022-11-15T11:15:53;10.75;;;10.15;;
27977;SDS011;15314;49.248;6.968;2022-11-15T11:17:25;11.05;;;10.45;;
27977;SDS011;15314;49.248;6.968;2022-11-15T11:30:16;11.07;;;10.38;;
27977;SDS011;15314;49.248;6.968;2022-11-15T11:31:42;12.00;;;11.32;;
27977;SDS011;15314;49.248;6.968;2022-11-15T11:34:20;11.57;;;10.82;;
27977;SDS011;15314;49.248;6.968;2022-11-15T11:35:50;10.80;;;10.30;;
27977;SDS011;15314;49.248;6.968;2022-11-15T11:37:14;11.52;;;10.90;;
27977;SDS011;15314;49.248;6.968;2022-11-15T11:48:02;10.27;;;9.77;;
27977;SDS011;15314;49.248;6.968;2022-11-15T11:50:46;10.07;;;9.48;;
27977;SDS011;15314;49.248;6.968;2022-11-15T11:51:53;10.30;;;9.80;;
27977;SDS011;15314;49.248;6.968;2022-11-15T11:53:05;10.15;;;9.65;;
27977;SDS011;15314;49.248;6.968;2022-11-15T11:55:39;11.52;;;10.93;;
27977;SDS011;15314;49.248;6.968;2022-11-15T11:56:43;10.52;;;9.93;;
27977;SDS011;15314;49.248;6.968;2022-11-15T11:59:19;11.00;;;10.25;;
27977;SDS011;15314;49.248;6.968;2022-11-15T12:01:10;9.73;;;9.13;;
27977;SDS011;15314;49.248;6.968;2022-11-15T12:02:11;10.38;;;9.68;;
27977;SDS011;15314;49.248;6.968;2022-11-15T12:03:36;10.15;;;9.65;;
27977;SDS011;15314;49.248;6.968;2022-11-15T12:04:46;10.23;;;9.75;;
27977;SDS011;15314;49.248;6.968;2022-11-15T12:05:54;10.35;;;9.85;;
27977;SDS011;15314;49.248;6.968;2022-11-15T12:08:28;10.98;;;10.05;;
27977;SDS011;15314;49.248;6.968;2022-11-15T12:11:28;10.80;;;9.93;;
27977;SDS011;15314;49.248;6.968;2022-11-15T12:14:01;9.73;;;9.13;;
27977;SDS011;15314;49.248;6.968;2022-11-15T12:15:04;10.55;;;10.02;;
27977;SDS011;15314;49.248;6.968;2022-11-15T12:16:17;12.10;;;11.07;;
27977;SDS011;15314;49.248;6.968;2022-11-15T12:17:21;9.95;;;9.43;;
27977;SDS011;15314;49.248;6.968;2022-11-15T12:18:26;10.60;;;10.00;;
27977;SDS011;15314;49.248;6.968;2022-11-15T12:19:28;10.35;;;9.77;;
27977;SDS011;15314;49.248;6.968;2022-11-15T12:20:32;9.60;;;9.00;;
27977;SDS011;15314;49.248;6.968;2022-11-15T12:21:43;9.68;;;9.18;;
27977;SDS011;15314;49.248;6.968;2022-11-15T12:23:05;10.40;;;9.88;;
27977;SDS011;15314;49.248;6.968;2022-11-15T12:24:19;9.95;;;9.38;;
27977;SDS011;15314;49.248;6.968;2022-11-15T12:25:51;9.93;;;9.18;;
27977;SDS011;15314;49.248;6.968;2022-11-15T12:26:55;9.65;;;9.25;;
27977;SDS011;15314;49.248;6.968;2022-11-15T12:28:18;9.57;;;9.18;;
27977;SDS011;15314;49.248;6.968;2022-11-15T12:29:23;10.02;;;9.38;;
27977;SDS011;15314;49.248;6.968;2022-11-15T12:30:41;10.07;;;9.57;;
27977;SDS011;15314;49.248;6.968;2022-11-15T12:31:51;9.93;;;9.43;;
27977;SDS011;15314;49.248;6.968;2022-11-15T12:32:59;10.77;;;9.98;;
27977;SDS011;15314;49.248;6.968;2022-11-15T12:34:01;10.25;;;9.75;;
27977;SDS011;15314;49.248;6.968;2022-11-15T12:35:06;10.32;;;9.73;;
27977;SDS011;15314;49.248;6.968;2022-11-15T12:38:56;9.35;;;8.95;;
27977;SDS011;15314;49.248;6.968;2022-11-15T12:41:20;9.93;;;9.27;;
27977;SDS011;15314;49.248;6.968;2022-11-15T12:43:35;9.80;;;9.30;;
27977;SDS011;15314;49.248;6.968;2022-11-15T12:45:42;10.55;;;9.40;;
27977;SDS011;15314;49.248;6.968;2022-11-15T12:47:44;9.70;;;9.20;;
27977;SDS011;15314;49.248;6.968;2022-11-15T12:48:46;9.20;;;8.80;;
27977;SDS011;15314;49.248;6.968;2022-11-15T12:49:48;9.18;;;8.70;;
27977;SDS011;15314;49.248;6.968;2022-11-15T12:53:25;9.52;;;8.93;;
27977;SDS011;15314;49.248;6.968;2022-11-15T12:55:30;9.95;;;9.45;;
27977;SDS011;15314;49.248;6.968;2022-11-15T12:56:32;9.65;;;9.15;;
27977;SDS011;15314;49.248;6.968;2022-11-15T12:57:34;10.05;;;9.55;;
27977;SDS011;15314;49.248;6.968;2022-11-15T12:59:54;9.98;;;9.57;;
27977;SDS011;15314;49.248;6.968;2022-11-15T13:00:58;10.32;;;9.82;;
27977;SDS011;15314;49.248;6.968;2022-11-15T13:01:59;9.80;;;9.30;;
27977;SDS011;15314;49.248;6.968;2022-11-15T13:03:22;10.63;;;10.13;;
27977;SDS011;15314;49.248;6.968;2022-11-15T13:04:25;10.00;;;9.40;;
27977;SDS011;15314;49.248;6.968;2022-11-15T13:05:51;10.07;;;9.68;;
27977;SDS011;15314;49.248;6.968;2022-11-15T13:08:01;9.77;;;9.02;;
27977;SDS011;15314;49.248;6.968;2022-11-15T13:09:02;10.00;;;9.40;;
27977;SDS011;15314;49.248;6.968;2022-11-15T13:13:46;10.52;;;9.98;;
27977;SDS011;15314;49.248;6.968;2022-11-15T13:14:56;10.05;;;9.65;;
27977;SDS011;15314;49.248;6.968;2022-11-15T13:16:21;10.05;;;9.55;;
27977;SDS011;15314;49.248;6.968;2022-11-15T13:17:32;11.10;;;10.38;;
27977;SDS011;15314;49.248;6.968;2022-11-15T13:18:39;11.27;;;10.60;;
27977;SDS011;15314;49.248;6.968;2022-11-15T13:19:40;10.63;;;10.07;;
27977;SDS011;15314;49.248;6.968;2022-11-15T13:20:44;10.32;;;9.82;;
27977;SDS011;15314;49.248;6.968;2022-11-15T13:21:47;10.32;;;9.90;;
27977;SDS011;15314;49.248;6.968;2022-11-15T13:23:09;10.40;;;9.82;;
27977;SDS011;15314;49.248;6.968;2022-11-15T13:24:13;10.45;;;9.85;;
27977;SDS011;15314;49.248;6.968;2022-11-15T13:26:50;9.85;;;9.35;;
27977;SDS011;15314;49.248;6.968;2022-11-15T13:27:51;9.85;;;9.45;;
27977;SDS011;15314;49.248;6.968;2022-11-15T13:28:54;9.90;;;9.50;;
27977;SDS011;15314;49.248;6.968;2022-11-15T13:29:55;10.32;;;9.82;;
27977;SDS011;15314;49.248;6.968;2022-11-15T13:30:57;9.25;;;8.85;;
27977;SDS011;15314;49.248;6.968;2022-11-15T13:32:00;9.90;;;9.30;;
27977;SDS011;15314;49.248;6.968;2022-11-15T13:33:07;9.98;;;9.48;;
27977;SDS011;15314;49.248;6.968;2022-11-15T13:35:23;9.60;;;9.10;;
27977;SDS011;15314;49.248;6.968;2022-11-15T13:36:30;9.93;;;9.43;;
27977;SDS011;15314;49.248;6.968;2022-11-15T13:37:36;9.75;;;9.25;;
27977;SDS011;15314;49.248;6.968;2022-11-15T13:38:37;10.50;;;9.90;;
27977;SDS011;15314;49.248;6.968;2022-11-15T13:39:39;10.80;;;10.00;;
27977;SDS011;15314;49.248;6.968;2022-11-15T13:40:40;10.02;;;9.50;;
27977;SDS011;15314;49.248;6.968;2022-11-15T13:41:50;10.55;;;9.95;;
27977;SDS011;15314;49.248;6.968;2022-11-15T13:42:52;9.23;;;8.73;;
27977;SDS011;15314;49.248;6.968;2022-11-15T13:43:53;10.15;;;9.50;;
27977;SDS011;15314;49.248;6.968;2022-11-15T13:44:56;10.00;;;9.50;;
27977;SDS011;15314;49.248;6.968;2022-11-15T13:47:15;10.35;;;9.35;;
27977;SDS011;15314;49.248;6.968;2022-11-15T13:48:18;10.80;;;10.00;;
27977;SDS011;15314;49.248;6.968;2022-11-15T13:49:19;9.80;;;9.30;;
27977;SDS011;15314;49.248;6.968;2022-11-15T13:50:31;10.30;;;9.77;;
27977;SDS011;15314;49.248;6.968;2022-11-15T13:51:37;9.98;;;9.45;;
27977;SDS011;15314;49.248;6.968;2022-11-15T13:52:44;9.30;;;8.80;;
27977;SDS011;15314;49.248;6.968;2022-11-15T13:53:50;10.20;;;9.70;;
27977;SDS011;15314;49.248;6.968;2022-11-15T13:55:13;10.55;;;9.85;;
27977;SDS011;15314;49.248;6.968;2022-11-15T13:56:17;10.60;;;9.90;;
27977;SDS011;15314;49.248;6.968;2022-11-15T13:57:26;11.07;;;10.27;;
27977;SDS011;15314;49.248;6.968;2022-11-15T13:58:48;10.63;;;9.93;;
27977;SDS011;15314;49.248;6.968;2022-11-15T13:59:52;10.38;;;9.65;;
27977;SDS011;15314;49.248;6.968;2022-11-15T14:00:59;10.00;;;9.23;;
27977;SDS011;15314;49.248;6.968;2022-11-15T14:02:11;9.80;;;9.30;;
27977;SDS011;15314;49.248;6.968;2022-11-15T14:04:25;9.90;;;9.20;;
27977;SDS011;15314;49.248;6.968;2022-11-15T14:05:29;9.80;;;9.30;;